Time;durP1;ratioP1;P1;durP2;ratioP2;P2;SDS_P1;SDS_P2;PMS_P1;PMS_P2;Temp;Humidity;BMP_temperature;BMP_pressure;BME280_temperature;BME280_humidity;BME280_pressure;Samples;Min_cycle;Max_cycle;Signal;HPM_P1;HPM_P2
2023/12/28 00:02:44;;;;;;;9.38;8.57;;;;;;;6.24;100.00;100423.28;12628567;23;20029;-71
2023/12/28 00:07:41;;;;;;;7.85;7.05;;;;;;;6.42;100.00;100441.44;12633931;23;20366;-70
2023/12/28 00:12:37;;;;;;;8.65;7.88;;;;;;;6.37;100.00;100460.53;12633517;23;20024;-70
2023/12/28 00:17:34;;;;;;;7.38;6.78;;;;;;;6.56;100.00;100470.56;12634503;23;20063;-70
2023/12/28 00:22:31;;;;;;;12.02;7.80;;;;;;;6.62;100.00;100474.81;12635070;23;20021;-70
2023/12/28 00:27:27;;;;;;;8.23;6.97;;;;;;;6.70;100.00;100517.59;12608043;23;20028;-70
2023/12/28 00:32:25;;;;;;;7.97;7.28;;;;;;;6.83;100.00;100505.19;12634073;23;20111;-70
2023/12/28 00:43:16;;;;;;;11.10;9.95;;;;;;;6.16;100.00;100492.63;12565306;23;20113;-69
2023/12/28 00:48:12;;;;;;;10.25;9.55;;;;;;;6.07;100.00;100484.31;12638100;23;20865;-70
2023/12/28 00:53:09;;;;;;;11.35;10.25;;;;;;;6.08;100.00;100447.13;12638172;23;20029;-70
2023/12/28 00:58:06;;;;;;;11.07;10.25;;;;;;;6.06;100.00;100433.06;12636794;23;20099;-70
2023/12/28 01:03:03;;;;;;;10.88;10.07;;;;;;;6.06;100.00;100428.44;12634928;23;20339;-69
2023/12/28 01:07:59;;;;;;;12.23;10.43;;;;;;;6.07;100.00;100416.47;12635536;23;20025;-70
2023/12/28 01:12:56;;;;;;;11.60;10.32;;;;;;;6.13;100.00;100432.66;12636958;23;20028;-70
2023/12/28 01:17:53;;;;;;;10.77;9.43;;;;;;;6.16;100.00;100418.53;12637560;23;20063;-70
2023/12/28 01:22:50;;;;;;;10.75;9.80;;;;;;;6.22;100.00;100426.31;12637471;23;20055;-70
2023/12/28 01:27:46;;;;;;;11.25;10.38;;;;;;;6.22;100.00;100428.19;12637171;23;20025;-70
2023/12/28 01:32:43;;;;;;;11.77;10.88;;;;;;;6.24;100.00;100440.41;12635293;23;20056;-70
2023/12/28 01:37:40;;;;;;;11.30;10.40;;;;;;;6.28;100.00;100435.97;12637768;23;20028;-70
2023/12/28 01:42:37;;;;;;;11.23;10.40;;;;;;;6.31;100.00;100423.69;12635759;23;20414;-71
2023/12/28 01:47:34;;;;;;;10.27;9.57;;;;;;;6.43;100.00;100445.78;12630460;23;20651;-71
2023/12/28 01:52:31;;;;;;;11.77;10.77;;;;;;;6.42;100.00;100436.00;12636402;23;20024;-70
2023/12/28 01:57:27;;;;;;;10.65;9.90;;;;;;;6.53;100.00;100442.09;12637016;23;20025;-70
2023/12/28 02:02:24;;;;;;;10.30;9.48;;;;;;;6.61;100.00;100474.00;12610540;23;20086;-70
2023/12/28 02:07:21;;;;;;;10.95;9.95;;;;;;;6.64;100.00;100453.59;12631207;23;20116;-72
2023/12/28 02:12:18;;;;;;;11.05;10.10;;;;;;;6.71;100.00;100449.38;12635611;23;20028;-70
2023/12/28 02:17:56;;;;;;;11.73;10.80;;;;;;;6.82;100.00;100466.31;12636876;23;20025;-71
2023/12/28 02:22:53;;;;;;;10.55;9.70;;;;;;;6.95;100.00;100470.97;12617568;23;20104;-71
2023/12/28 02:27:50;;;;;;;10.90;9.98;;;;;;;6.89;100.00;100491.22;12634174;23;20455;-71
2023/12/28 02:33:15;;;;;;;11.40;10.35;;;;;;;6.85;100.00;100492.91;12635655;23;20028;-72
2023/12/28 02:38:15;;;;;;;13.00;10.00;;;;;;;6.88;100.00;100508.59;12636748;23;20032;-71
2023/12/28 02:43:12;;;;;;;11.35;10.45;;;;;;;6.88;100.00;100481.44;12609103;23;20465;-71
2023/12/28 02:48:09;;;;;;;11.38;10.48;;;;;;;6.89;100.00;100488.50;12635667;23;20024;-72
2023/12/28 02:53:06;;;;;;;11.80;10.90;;;;;;;6.90;100.00;100490.09;12629892;23;20032;-70
2023/12/28 02:58:02;;;;;;;12.38;11.23;;;;;;;6.91;100.00;100480.03;12606951;23;20030;-72
2023/12/28 03:03:00;;;;;;;10.75;10.00;;;;;;;6.88;100.00;100497.72;12633979;23;20060;-71
2023/12/28 03:07:58;;;;;;;11.38;10.48;;;;;;;6.89;100.00;100499.38;12626701;23;20021;-72
2023/12/28 03:12:55;;;;;;;11.55;10.60;;;;;;;6.99;100.00;100492.13;12631372;23;20096;-71
2023/12/28 03:17:52;;;;;;;11.50;10.50;;;;;;;6.98;100.00;100507.63;12634460;23;20715;-70
2023/12/28 03:22:49;;;;;;;11.85;10.93;;;;;;;6.95;100.00;100503.59;12633408;23;20465;-72
2023/12/28 03:27:45;;;;;;;11.00;10.10;;;;;;;6.95;100.00;100514.47;12634304;23;20099;-72
2023/12/28 03:32:42;;;;;;;11.05;10.13;;;;;;;6.90;100.00;100505.59;12634995;23;20033;-71
2023/12/28 03:37:38;;;;;;;12.55;10.95;;;;;;;6.90;100.00;100506.41;12634455;23;20059;-71
2023/12/28 03:42:35;;;;;;;11.65;10.43;;;;;;;7.01;100.00;100517.09;12631773;23;20031;-72
2023/12/28 03:47:32;;;;;;;13.35;12.18;;;;;;;6.87;100.00;100501.56;12631701;23;20107;-71
2023/12/28 03:52:30;;;;;;;13.98;10.98;;;;;;;6.87;100.00;100501.56;12634218;23;20344;-71
2023/12/28 03:57:27;;;;;;;13.30;11.57;;;;;;;6.81;100.00;100507.38;12601223;22;20421;-70
2023/12/28 04:02:27;;;;;;;12.25;11.05;;;;;;;6.79;100.00;100513.09;12633786;23;20040;-72
2023/12/28 04:13:36;;;;;;;11.57;10.68;;;;;;;6.85;100.00;100494.81;12576571;23;20029;-69
2023/12/28 04:18:55;;;;;;;11.37;10.53;;;;;;;6.87;100.00;100501.56;12624476;23;20028;-70
2023/12/28 04:23:52;;;;;;;12.65;11.55;;;;;;;6.82;100.00;100498.13;12589857;23;20033;-71
2023/12/28 04:28:50;;;;;;;11.88;10.98;;;;;;;6.87;100.00;100493.41;12576834;23;20031;-70
2023/12/28 04:33:46;;;;;;;12.18;11.02;;;;;;;6.90;100.00;100492.81;12623436;23;20095;-70
2023/12/28 04:38:43;;;;;;;12.48;11.30;;;;;;;6.84;100.00;100496.72;12639247;23;20024;-70
2023/12/28 04:43:39;;;;;;;12.23;11.18;;;;;;;6.87;100.00;100487.16;12638075;23;20039;-70
2023/12/28 04:48:36;;;;;;;15.43;11.25;;;;;;;6.88;100.00;100481.44;12638901;23;20059;-71
2023/12/28 04:53:33;;;;;;;12.00;11.00;;;;;;;6.92;100.00;100482.44;12636716;23;20402;-72
2023/12/28 04:58:30;;;;;;;12.82;11.38;;;;;;;6.93;100.00;100502.28;12604541;23;20474;-71
2023/12/28 05:03:27;;;;;;;13.75;12.63;;;;;;;6.84;100.00;100507.59;12635914;23;20462;-71
2023/12/28 05:08:23;;;;;;;13.63;12.43;;;;;;;6.85;100.00;100503.78;12636615;23;20531;-71
2023/12/28 05:13:20;;;;;;;13.63;12.52;;;;;;;6.88;100.00;100522.19;12628910;23;20108;-70
2023/12/28 05:18:17;;;;;;;14.18;12.73;;;;;;;6.87;100.00;100496.13;12636188;23;20032;-70
2023/12/28 05:23:14;;;;;;;13.63;12.38;;;;;;;6.93;100.00;100505.78;12634991;23;20474;-72
2023/12/28 05:28:10;;;;;;;13.93;12.77;;;;;;;6.74;100.00;100491.47;12634551;23;20119;-70
2023/12/28 05:33:07;;;;;;;13.27;12.23;;;;;;;6.92;100.00;100500.69;12607534;23;20028;-70
2023/12/28 05:38:04;;;;;;;14.13;12.70;;;;;;;6.93;100.00;100515.88;12634286;23;20111;-70
2023/12/28 05:43:01;;;;;;;14.25;12.73;;;;;;;6.91;100.00;100508.00;12609081;23;20029;-75
2023/12/28 05:47:58;;;;;;;13.30;12.15;;;;;;;7.11;100.00;100506.84;12611655;23;20028;-75
2023/12/28 05:52:55;;;;;;;12.80;11.80;;;;;;;7.20;100.00;100515.13;12636632;23;20078;-75
2023/12/28 05:57:51;;;;;;;13.15;12.15;;;;;;;7.18;100.00;100517.34;12637313;23;20100;-74
2023/12/28 06:02:51;;;;;;;13.27;12.05;;;;;;;7.18;100.00;100525.50;12608120;23;20027;-76
2023/12/28 06:19:11;;;;;;;;;;;;;;;;;;;;;
2023/12/28 06:37:49;;;;;;;13.25;10.20;;;;;;;8.02;100.00;100540.72;12380953;23;20027;-77
2023/12/28 06:43:16;;;;;;;10.27;9.27;;;;;;;8.08;100.00;100544.97;12207367;23;20035;-79
2023/12/28 06:48:47;;;;;;;10.45;9.50;;;;;;;8.14;100.00;100548.38;12220755;23;20043;-78
2023/12/28 06:54:46;;;;;;;11.23;9.43;;;;;;;8.16;100.00;100548.88;12229569;23;20081;-78
2023/12/28 07:00:58;;;;;;;10.93;9.10;;;;;;;8.33;100.00;100545.50;12036222;24;20377;-78
2023/12/28 07:13:42;;;;;;;;;;;;;;;;;;;;;
2023/12/28 07:44:55;;;;;;;12.65;9.18;;;;;;;8.34;100.00;100556.09;12279360;23;20019;-78
2023/12/28 08:17:08;;;;;;;9.05;7.80;;;;;;;8.57;100.00;100586.94;12631610;23;20020;-78
2023/12/28 08:22:25;;;;;;;9.68;8.10;;;;;;;8.74;100.00;100566.38;12636380;22;20024;-76
2023/12/28 09:25:21;;;;;;;10.13;7.00;;;;;;;9.31;100.00;100601.28;12510548;23;20010;-76
2023/12/28 09:30:18;;;;;;;8.88;7.38;;;;;;;9.44;100.00;100593.00;12536658;23;20020;-76
2023/12/28 11:09:30;;;;;;;14.13;6.70;;;;;;;10.13;100.00;100605.31;12217868;23;20031;-78
2023/12/28 11:14:27;;;;;;;13.95;7.90;;;;;;;9.97;100.00;100613.13;12252434;23;20026;-76
2023/12/28 12:42:49;;;;;;;;;;;;;;;;;;;;;
2023/12/28 12:49:03;;;;;;;19.00;8.30;;;;;;;10.08;100.00;100583.63;12577625;23;20025;-76
2023/12/28 12:54:35;;;;;;;14.00;7.63;;;;;;;10.05;100.00;100593.25;12624091;22;20363;-77
2023/12/28 13:00:04;;;;;;;17.23;8.40;;;;;;;9.99;100.00;100583.59;12568699;23;20037;-78
2023/12/28 13:05:56;;;;;;;12.15;8.20;;;;;;;9.97;100.00;100591.28;12595870;23;20028;-76
2023/12/28 13:11:16;;;;;;;11.77;7.80;;;;;;;9.97;100.00;100598.69;12620552;23;20024;-77
2023/12/28 13:42:18;;;;;;;;;;;;;;;;;;;;;
2023/12/28 13:54:42;;;;;;;20.50;8.80;;;;;;;9.74;100.00;100604.22;12647245;23;20016;-77
2023/12/28 14:00:18;;;;;;;14.38;8.25;;;;;;;9.83;100.00;100607.00;12653145;22;20044;-77
2023/12/28 14:05:23;;;;;;;16.15;9.10;;;;;;;9.78;100.00;100605.19;12586911;23;20111;-77
2023/12/28 14:54:06;;;;;;;13.32;8.35;;;;;;;9.79;100.00;100634.09;12078995;24;20099;-76
2023/12/28 15:29:55;;;;;;;20.20;9.57;;;;;;;9.78;100.00;100609.88;12438819;23;20030;-78
2023/12/28 16:01:40;;;;;;;20.70;9.80;;;;;;;9.63;100.00;100630.19;12332865;23;20019;-77
2023/12/28 16:13:17;;;;;;;;;;;;;;;;;;;;;
2023/12/28 16:36:56;;;;;;;16.15;9.40;;;;;;;9.67;100.00;100592.94;12509963;23;20028;-78
2023/12/28 16:54:14;;;;;;;13.45;10.32;;;;;;;9.54;100.00;100599.28;12638731;22;20328;-78
2023/12/28 17:33:39;;;;;;;17.60;9.50;;;;;;;9.17;100.00;100585.00;12553023;22;20033;-77
2023/12/28 18:51:08;;;;;;;;;;;;;;;;;;;;;
2023/12/28 18:57:11;;;;;;;;;;;;;;;;;;;;;
2023/12/28 19:25:17;;;;;;;11.65;9.73;;;;;;;9.54;100.00;100522.88;12554972;23;20127;-75
2023/12/28 21:08:07;;;;;;;15.63;8.68;;;;;;;9.61;100.00;100430.44;12565823;23;20025;-70
2023/12/28 21:13:05;;;;;;;11.27;8.07;;;;;;;9.63;100.00;100412.63;12572403;23;20398;-68
2023/12/28 21:18:01;;;;;;;11.60;8.45;;;;;;;9.63;100.00;100417.25;12606844;23;20476;-70
2023/12/28 21:23:14;;;;;;;11.10;8.73;;;;;;;9.61;100.00;100414.06;12627805;23;20031;-70
2023/12/28 21:28:12;;;;;;;13.20;8.55;;;;;;;9.66;100.00;100411.19;12632869;22;20467;-69
2023/12/28 21:33:09;;;;;;;11.85;8.75;;;;;;;9.62;100.00;100407.47;12607405;23;20025;-70
2023/12/28 21:38:07;;;;;;;20.05;9.13;;;;;;;9.63;100.00;100417.25;12633202;23;20099;-69
2023/12/28 21:43:03;;;;;;;17.08;8.70;;;;;;;9.63;100.00;100407.16;12594984;23;20028;-69
2023/12/28 21:48:01;;;;;;;11.70;8.38;;;;;;;9.62;100.00;100415.66;12571809;23;20036;-69
2023/12/28 21:52:58;;;;;;;11.10;7.72;;;;;;;9.64;100.00;100402.50;12570697;23;20040;-69
2023/12/28 21:57:54;;;;;;;14.23;8.48;;;;;;;9.63;100.00;100393.50;12572817;23;20021;-70
2023/12/28 22:02:51;;;;;;;14.75;8.45;;;;;;;9.63;100.00;100381.75;12546507;23;20670;-69
2023/12/28 22:08:18;;;;;;;8.88;7.75;;;;;;;9.60;100.00;100390.59;12571313;23;20526;-70
2023/12/28 22:13:15;;;;;;;14.82;8.20;;;;;;;9.63;100.00;100389.94;12567853;23;20104;-69
2023/12/28 22:18:12;;;;;;;11.38;7.93;;;;;;;9.68;100.00;100378.91;12605432;23;20075;-69
2023/12/28 22:23:08;;;;;;;12.50;8.13;;;;;;;9.65;100.00;100355.78;12632919;23;20108;-69
2023/12/28 22:28:05;;;;;;;11.43;7.35;;;;;;;9.67;100.00;100367.16;12603328;22;20100;-69
2023/12/28 22:33:02;;;;;;;14.48;8.45;;;;;;;9.68;100.00;100348.88;12632555;23;20029;-69
2023/12/28 22:37:59;;;;;;;17.58;9.07;;;;;;;9.67;100.00;100352.72;12633270;23;20048;-69
2023/12/28 22:42:56;;;;;;;13.38;9.07;;;;;;;9.70;100.00;100352.09;12632878;23;20025;-69
2023/12/28 22:47:53;;;;;;;10.25;8.90;;;;;;;9.73;100.00;100354.16;12633389;23;20594;-69
2023/12/28 22:52:49;;;;;;;15.18;9.77;;;;;;;9.68;100.00;100359.78;12632356;23;20103;-69
2023/12/28 22:57:46;;;;;;;12.88;8.75;;;;;;;9.67;100.00;100374.56;12632352;23;20035;-69
2023/12/28 23:02:42;;;;;;;9.63;8.32;;;;;;;9.70;100.00;100341.16;12633595;23;20021;-69
2023/12/28 23:14:02;;;;;;;15.35;8.60;;;;;;;9.66;100.00;100323.81;12644751;23;20020;-69
2023/12/28 23:19:22;;;;;;;;;;;;;;;9.48;100.00;100345.63;12617877;23;20470;-68
2023/12/28 23:24:19;;;;;;;15.68;8.40;;;;;;;9.39;100.00;100303.88;12639356;22;19927;-68
2023/12/28 23:29:43;;;;;;;14.80;8.40;;;;;;;9.47;100.00;100300.38;12628405;22;20485;-68
2023/12/28 23:34:39;;;;;;;9.75;8.35;;;;;;;9.53;100.00;100294.75;12630361;22;20055;-68
2023/12/28 23:39:36;;;;;;;14.23;8.82;;;;;;;9.51;100.00;100297.00;12626193;23;20020;-67
2023/12/28 23:44:33;;;;;;;14.57;9.60;;;;;;;9.31;100.00;100285.59;12631768;23;20107;-67
2023/12/28 23:49:33;;;;;;;15.68;10.38;;;;;;;9.30;100.00;100273.06;12630983;23;20433;-69
2023/12/28 23:54:30;;;;;;;11.25;9.05;;;;;;;9.29;100.00;100268.75;12687877;23;20385;-69
2023/12/28 23:59:27;;;;;;;10.93;8.15;;;;;;;9.19;100.00;100288.13;12693372;22;20536;-69
